sensor_id;sensor_type;location;lat;lon;timestamp;P1;durP1;ratioP1;P2;durP2;ratioP2
215;SDS011;70668;48.81286795;9.14184224;2023-11-19T00:00:25;6.73;;;3.90;;
215;SDS011;70668;48.81286795;9.14184224;2023-11-19T00:02:53;9.03;;;4.87;;
215;SDS011;70668;48.81286795;9.14184224;2023-11-19T00:05:22;16.07;;;7.30;;
215;SDS011;70668;48.81286795;9.14184224;2023-11-19T00:07:50;16.20;;;7.50;;
215;SDS011;70668;48.81286795;9.14184224;2023-11-19T00:10:19;12.20;;;6.20;;
215;SDS011;70668;48.81286795;9.14184224;2023-11-19T00:12:48;9.43;;;4.73;;
215;SDS011;70668;48.81286795;9.14184224;2023-11-19T00:15:17;8.30;;;4.50;;
215;SDS011;70668;48.81286795;9.14184224;2023-11-19T00:17:49;7.67;;;4.10;;
215;SDS011;70668;48.81286795;9.14184224;2023-11-19T00:20:18;5.90;;;3.63;;
215;SDS011;70668;48.81286795;9.14184224;2023-11-19T00:22:47;9.80;;;4.20;;
215;SDS011;70668;48.81286795;9.14184224;2023-11-19T00:25:16;5.77;;;3.37;;
215;SDS011;70668;48.81286795;9.14184224;2023-11-19T00:27:45;5.63;;;3.20;;
215;SDS011;70668;48.81286795;9.14184224;2023-11-19T00:30:14;5.47;;;3.43;;
215;SDS011;70668;48.81286795;9.14184224;2023-11-19T00:32:42;6.90;;;3.60;;
215;SDS011;70668;48.81286795;9.14184224;2023-11-19T00:35:13;5.07;;;2.10;;
215;SDS011;70668;48.81286795;9.14184224;2023-11-19T00:37:42;3.60;;;2.10;;
215;SDS011;70668;48.81286795;9.14184224;2023-11-19T00:40:12;4.00;;;1.93;;
215;SDS011;70668;48.81286795;9.14184224;2023-11-19T00:42:43;3.47;;;2.10;;
215;SDS011;70668;48.81286795;9.14184224;2023-11-19T00:45:12;3.17;;;1.67;;
215;SDS011;70668;48.81286795;9.14184224;2023-11-19T00:47:41;3.07;;;1.80;;
215;SDS011;70668;48.81286795;9.14184224;2023-11-19T00:50:10;3.20;;;1.80;;
215;SDS011;70668;48.81286795;9.14184224;2023-11-19T00:52:41;4.40;;;1.70;;
215;SDS011;70668;48.81286795;9.14184224;2023-11-19T00:55:10;5.70;;;1.70;;
215;SDS011;70668;48.81286795;9.14184224;2023-11-19T00:57:39;3.13;;;1.70;;
215;SDS011;70668;48.81286795;9.14184224;2023-11-19T01:00:08;3.87;;;1.90;;
215;SDS011;70668;48.81286795;9.14184224;2023-11-19T01:02:43;6.23;;;1.80;;
215;SDS011;70668;48.81286795;9.14184224;2023-11-19T01:05:14;2.80;;;1.60;;
215;SDS011;70668;48.81286795;9.14184224;2023-11-19T01:07:49;3.40;;;2.20;;
215;SDS011;70668;48.81286795;9.14184224;2023-11-19T01:10:18;2.90;;;1.70;;
215;SDS011;70668;48.81286795;9.14184224;2023-11-19T01:12:47;3.80;;;1.80;;
215;SDS011;70668;48.81286795;9.14184224;2023-11-19T01:15:15;2.97;;;1.73;;
215;SDS011;70668;48.81286795;9.14184224;2023-11-19T01:17:45;4.20;;;1.90;;
215;SDS011;70668;48.81286795;9.14184224;2023-11-19T01:20:14;3.23;;;1.70;;
215;SDS011;70668;48.81286795;9.14184224;2023-11-19T01:22:43;4.27;;;1.70;;
215;SDS011;70668;48.81286795;9.14184224;2023-11-19T01:25:16;2.93;;;1.60;;
215;SDS011;70668;48.81286795;9.14184224;2023-11-19T01:27:45;2.57;;;1.40;;
215;SDS011;70668;48.81286795;9.14184224;2023-11-19T01:30:13;3.20;;;1.60;;
215;SDS011;70668;48.81286795;9.14184224;2023-11-19T01:32:42;2.47;;;1.50;;
215;SDS011;70668;48.81286795;9.14184224;2023-11-19T01:35:10;3.07;;;1.20;;
215;SDS011;70668;48.81286795;9.14184224;2023-11-19T01:37:39;2.30;;;1.30;;
215;SDS011;70668;48.81286795;9.14184224;2023-11-19T01:40:09;2.20;;;1.23;;
215;SDS011;70668;48.81286795;9.14184224;2023-11-19T01:42:41;2.17;;;1.27;;
215;SDS011;70668;48.81286795;9.14184224;2023-11-19T01:45:10;2.53;;;1.20;;
215;SDS011;70668;48.81286795;9.14184224;2023-11-19T01:47:56;3.47;;;1.40;;
215;SDS011;70668;48.81286795;9.14184224;2023-11-19T01:50:25;2.30;;;1.33;;
215;SDS011;70668;48.81286795;9.14184224;2023-11-19T01:52:55;4.20;;;1.30;;
215;SDS011;70668;48.81286795;9.14184224;2023-11-19T01:55:26;2.17;;;1.20;;
215;SDS011;70668;48.81286795;9.14184224;2023-11-19T01:57:59;2.33;;;1.30;;
215;SDS011;70668;48.81286795;9.14184224;2023-11-19T02:00:30;2.67;;;1.30;;
215;SDS011;70668;48.81286795;9.14184224;2023-11-19T02:02:58;2.33;;;1.40;;
215;SDS011;70668;48.81286795;9.14184224;2023-11-19T02:05:28;2.40;;;1.40;;
215;SDS011;70668;48.81286795;9.14184224;2023-11-19T02:07:57;2.50;;;1.40;;
215;SDS011;70668;48.81286795;9.14184224;2023-11-19T02:10:26;2.20;;;1.20;;
215;SDS011;70668;48.81286795;9.14184224;2023-11-19T02:12:58;2.50;;;1.30;;
215;SDS011;70668;48.81286795;9.14184224;2023-11-19T02:15:28;2.00;;;1.20;;
215;SDS011;70668;48.81286795;9.14184224;2023-11-19T02:17:57;2.70;;;1.27;;
215;SDS011;70668;48.81286795;9.14184224;2023-11-19T02:20:45;2.27;;;1.30;;
215;SDS011;70668;48.81286795;9.14184224;2023-11-19T02:23:15;2.87;;;1.30;;
215;SDS011;70668;48.81286795;9.14184224;2023-11-19T02:25:44;2.47;;;1.37;;
215;SDS011;70668;48.81286795;9.14184224;2023-11-19T02:28:18;3.57;;;1.23;;
215;SDS011;70668;48.81286795;9.14184224;2023-11-19T02:30:47;2.77;;;1.33;;
215;SDS011;70668;48.81286795;9.14184224;2023-11-19T02:33:16;2.47;;;1.30;;
215;SDS011;70668;48.81286795;9.14184224;2023-11-19T02:35:44;2.27;;;1.20;;
215;SDS011;70668;48.81286795;9.14184224;2023-11-19T02:38:13;2.60;;;1.30;;
215;SDS011;70668;48.81286795;9.14184224;2023-11-19T02:40:41;2.10;;;1.30;;
215;SDS011;70668;48.81286795;9.14184224;2023-11-19T02:43:10;3.60;;;1.40;;
215;SDS011;70668;48.81286795;9.14184224;2023-11-19T02:45:41;2.30;;;1.40;;
215;SDS011;70668;48.81286795;9.14184224;2023-11-19T02:48:11;2.20;;;1.20;;
215;SDS011;70668;48.81286795;9.14184224;2023-11-19T02:50:39;4.30;;;1.57;;
215;SDS011;70668;48.81286795;9.14184224;2023-11-19T02:53:08;11.33;;;1.40;;
215;SDS011;70668;48.81286795;9.14184224;2023-11-19T02:55:38;2.83;;;1.37;;
215;SDS011;70668;48.81286795;9.14184224;2023-11-19T02:58:06;2.50;;;1.30;;
215;SDS011;70668;48.81286795;9.14184224;2023-11-19T03:00:47;2.37;;;1.30;;
215;SDS011;70668;48.81286795;9.14184224;2023-11-19T03:03:22;2.50;;;1.40;;
215;SDS011;70668;48.81286795;9.14184224;2023-11-19T03:05:54;3.60;;;1.30;;
215;SDS011;70668;48.81286795;9.14184224;2023-11-19T03:08:22;5.00;;;1.10;;
215;SDS011;70668;48.81286795;9.14184224;2023-11-19T03:10:51;2.30;;;1.20;;
215;SDS011;70668;48.81286795;9.14184224;2023-11-19T03:13:19;3.30;;;1.20;;
215;SDS011;70668;48.81286795;9.14184224;2023-11-19T03:15:50;2.80;;;1.20;;
215;SDS011;70668;48.81286795;9.14184224;2023-11-19T03:18:19;3.13;;;1.20;;
215;SDS011;70668;48.81286795;9.14184224;2023-11-19T03:20:47;1.90;;;1.10;;
215;SDS011;70668;48.81286795;9.14184224;2023-11-19T03:23:17;3.33;;;1.30;;
215;SDS011;70668;48.81286795;9.14184224;2023-11-19T03:25:46;3.43;;;1.30;;
215;SDS011;70668;48.81286795;9.14184224;2023-11-19T03:28:14;2.73;;;1.37;;
215;SDS011;70668;48.81286795;9.14184224;2023-11-19T03:30:43;2.73;;;1.30;;
215;SDS011;70668;48.81286795;9.14184224;2023-11-19T03:33:14;2.10;;;1.20;;
215;SDS011;70668;48.81286795;9.14184224;2023-11-19T03:35:43;5.93;;;1.30;;
215;SDS011;70668;48.81286795;9.14184224;2023-11-19T03:38:11;2.37;;;1.57;;
215;SDS011;70668;48.81286795;9.14184224;2023-11-19T03:40:40;13.10;;;1.73;;
215;SDS011;70668;48.81286795;9.14184224;2023-11-19T03:43:09;2.53;;;1.67;;
215;SDS011;70668;48.81286795;9.14184224;2023-11-19T03:45:38;7.00;;;1.40;;
215;SDS011;70668;48.81286795;9.14184224;2023-11-19T03:48:07;2.87;;;1.30;;
215;SDS011;70668;48.81286795;9.14184224;2023-11-19T03:50:38;3.43;;;1.30;;
215;SDS011;70668;48.81286795;9.14184224;2023-11-19T03:53:06;2.53;;;1.30;;
215;SDS011;70668;48.81286795;9.14184224;2023-11-19T03:55:35;3.27;;;1.20;;
215;SDS011;70668;48.81286795;9.14184224;2023-11-19T03:58:03;2.70;;;1.20;;
215;SDS011;70668;48.81286795;9.14184224;2023-11-19T04:00:32;2.20;;;1.10;;
215;SDS011;70668;48.81286795;9.14184224;2023-11-19T04:03:01;2.00;;;1.10;;
215;SDS011;70668;48.81286795;9.14184224;2023-11-19T04:05:30;2.53;;;1.40;;
215;SDS011;70668;48.81286795;9.14184224;2023-11-19T04:08:02;4.50;;;1.30;;
215;SDS011;70668;48.81286795;9.14184224;2023-11-19T04:10:30;1.90;;;1.00;;
215;SDS011;70668;48.81286795;9.14184224;2023-11-19T04:12:59;1.83;;;1.03;;
215;SDS011;70668;48.81286795;9.14184224;2023-11-19T04:15:28;2.00;;;1.00;;
215;SDS011;70668;48.81286795;9.14184224;2023-11-19T04:17:57;2.13;;;1.10;;
215;SDS011;70668;48.81286795;9.14184224;2023-11-19T04:20:26;3.00;;;1.00;;
215;SDS011;70668;48.81286795;9.14184224;2023-11-19T04:22:55;2.00;;;1.10;;
215;SDS011;70668;48.81286795;9.14184224;2023-11-19T04:25:28;2.33;;;1.00;;
215;SDS011;70668;48.81286795;9.14184224;2023-11-19T04:27:57;1.80;;;1.00;;
215;SDS011;70668;48.81286795;9.14184224;2023-11-19T04:30:25;2.00;;;1.00;;
215;SDS011;70668;48.81286795;9.14184224;2023-11-19T04:32:54;1.90;;;1.00;;
215;SDS011;70668;48.81286795;9.14184224;2023-11-19T04:35:22;1.90;;;1.07;;
215;SDS011;70668;48.81286795;9.14184224;2023-11-19T04:37:51;1.80;;;1.00;;
215;SDS011;70668;48.81286795;9.14184224;2023-11-19T04:40:22;2.10;;;1.00;;
215;SDS011;70668;48.81286795;9.14184224;2023-11-19T04:42:53;1.70;;;0.90;;
215;SDS011;70668;48.81286795;9.14184224;2023-11-19T04:45:22;3.00;;;1.10;;
215;SDS011;70668;48.81286795;9.14184224;2023-11-19T04:47:50;2.07;;;1.03;;
215;SDS011;70668;48.81286795;9.14184224;2023-11-19T04:50:19;1.80;;;1.00;;
215;SDS011;70668;48.81286795;9.14184224;2023-11-19T04:52:48;2.10;;;1.10;;
215;SDS011;70668;48.81286795;9.14184224;2023-11-19T04:55:16;1.97;;;1.00;;
215;SDS011;70668;48.81286795;9.14184224;2023-11-19T04:57:45;2.53;;;1.00;;
215;SDS011;70668;48.81286795;9.14184224;2023-11-19T05:00:16;1.90;;;1.10;;
215;SDS011;70668;48.81286795;9.14184224;2023-11-19T05:02:46;2.40;;;1.00;;
215;SDS011;70668;48.81286795;9.14184224;2023-11-19T05:05:16;2.90;;;1.00;;
215;SDS011;70668;48.81286795;9.14184224;2023-11-19T05:07:44;1.80;;;1.00;;
215;SDS011;70668;48.81286795;9.14184224;2023-11-19T05:10:13;1.90;;;1.00;;
215;SDS011;70668;48.81286795;9.14184224;2023-11-19T05:12:42;2.77;;;1.07;;
215;SDS011;70668;48.81286795;9.14184224;2023-11-19T05:15:11;2.20;;;1.00;;
215;SDS011;70668;48.81286795;9.14184224;2023-11-19T05:17:42;3.93;;;1.07;;
215;SDS011;70668;48.81286795;9.14184224;2023-11-19T05:20:11;2.70;;;1.10;;
215;SDS011;70668;48.81286795;9.14184224;2023-11-19T05:22:42;1.90;;;1.10;;
215;SDS011;70668;48.81286795;9.14184224;2023-11-19T05:25:11;4.03;;;1.00;;
215;SDS011;70668;48.81286795;9.14184224;2023-11-19T05:27:39;2.10;;;1.00;;
215;SDS011;70668;48.81286795;9.14184224;2023-11-19T05:30:08;2.90;;;1.13;;
215;SDS011;70668;48.81286795;9.14184224;2023-11-19T05:32:37;2.20;;;1.10;;
215;SDS011;70668;48.81286795;9.14184224;2023-11-19T05:35:08;2.00;;;1.10;;
215;SDS011;70668;48.81286795;9.14184224;2023-11-19T05:37:37;2.20;;;1.07;;
215;SDS011;70668;48.81286795;9.14184224;2023-11-19T05:40:06;2.13;;;1.10;;
215;SDS011;70668;48.81286795;9.14184224;2023-11-19T05:42:39;2.20;;;1.10;;
215;SDS011;70668;48.81286795;9.14184224;2023-11-19T05:45:10;2.03;;;1.10;;
215;SDS011;70668;48.81286795;9.14184224;2023-11-19T05:47:39;2.00;;;1.10;;
215;SDS011;70668;48.81286795;9.14184224;2023-11-19T05:50:11;2.83;;;1.10;;
215;SDS011;70668;48.81286795;9.14184224;2023-11-19T05:52:40;2.27;;;1.10;;
215;SDS011;70668;48.81286795;9.14184224;2023-11-19T05:55:08;2.07;;;1.10;;
215;SDS011;70668;48.81286795;9.14184224;2023-11-19T05:57:38;2.20;;;1.10;;
215;SDS011;70668;48.81286795;9.14184224;2023-11-19T06:00:07;2.33;;;1.10;;
215;SDS011;70668;48.81286795;9.14184224;2023-11-19T06:02:38;4.73;;;1.20;;
215;SDS011;70668;48.81286795;9.14184224;2023-11-19T06:05:06;1.97;;;1.07;;
215;SDS011;70668;48.81286795;9.14184224;2023-11-19T06:07:38;2.30;;;1.10;;
215;SDS011;70668;48.81286795;9.14184224;2023-11-19T06:10:07;3.20;;;1.13;;
215;SDS011;70668;48.81286795;9.14184224;2023-11-19T06:12:38;2.73;;;1.10;;
215;SDS011;70668;48.81286795;9.14184224;2023-11-19T06:15:07;4.73;;;1.10;;
215;SDS011;70668;48.81286795;9.14184224;2023-11-19T06:17:36;3.30;;;1.27;;
215;SDS011;70668;48.81286795;9.14184224;2023-11-19T06:20:05;4.17;;;1.20;;
215;SDS011;70668;48.81286795;9.14184224;2023-11-19T06:22:35;2.67;;;1.20;;
215;SDS011;70668;48.81286795;9.14184224;2023-11-19T06:25:07;2.67;;;1.10;;
215;SDS011;70668;48.81286795;9.14184224;2023-11-19T06:27:36;2.30;;;1.40;;
215;SDS011;70668;48.81286795;9.14184224;2023-11-19T06:30:06;2.10;;;1.20;;
215;SDS011;70668;48.81286795;9.14184224;2023-11-19T06:32:35;3.80;;;1.20;;
215;SDS011;70668;48.81286795;9.14184224;2023-11-19T06:35:04;2.07;;;1.23;;
215;SDS011;70668;48.81286795;9.14184224;2023-11-19T06:37:33;2.37;;;1.17;;
215;SDS011;70668;48.81286795;9.14184224;2023-11-19T06:40:05;2.00;;;1.10;;
215;SDS011;70668;48.81286795;9.14184224;2023-11-19T06:42:34;2.87;;;1.13;;
215;SDS011;70668;48.81286795;9.14184224;2023-11-19T06:45:04;2.83;;;1.10;;
215;SDS011;70668;48.81286795;9.14184224;2023-11-19T06:47:33;2.23;;;1.20;;
215;SDS011;70668;48.81286795;9.14184224;2023-11-19T06:50:01;3.77;;;1.20;;
215;SDS011;70668;48.81286795;9.14184224;2023-11-19T06:52:31;2.17;;;1.20;;
215;SDS011;70668;48.81286795;9.14184224;2023-11-19T06:54:59;2.67;;;1.40;;
215;SDS011;70668;48.81286795;9.14184224;2023-11-19T06:57:31;2.60;;;1.20;;
215;SDS011;70668;48.81286795;9.14184224;2023-11-19T06:59:59;2.93;;;1.20;;
215;SDS011;70668;48.81286795;9.14184224;2023-11-19T07:02:28;2.67;;;1.20;;
215;SDS011;70668;48.81286795;9.14184224;2023-11-19T07:04:56;2.40;;;1.20;;
215;SDS011;70668;48.81286795;9.14184224;2023-11-19T07:07:25;2.70;;;1.30;;
215;SDS011;70668;48.81286795;9.14184224;2023-11-19T07:09:54;2.23;;;1.20;;
215;SDS011;70668;48.81286795;9.14184224;2023-11-19T07:12:22;2.37;;;1.20;;
215;SDS011;70668;48.81286795;9.14184224;2023-11-19T07:14:54;3.80;;;1.20;;
215;SDS011;70668;48.81286795;9.14184224;2023-11-19T07:17:23;3.33;;;1.30;;
215;SDS011;70668;48.81286795;9.14184224;2023-11-19T07:19:52;2.40;;;1.30;;
215;SDS011;70668;48.81286795;9.14184224;2023-11-19T07:22:24;3.93;;;1.20;;
215;SDS011;70668;48.81286795;9.14184224;2023-11-19T07:24:57;2.80;;;1.13;;
215;SDS011;70668;48.81286795;9.14184224;2023-11-19T07:27:26;1.90;;;1.17;;
215;SDS011;70668;48.81286795;9.14184224;2023-11-19T07:29:58;3.73;;;1.13;;
215;SDS011;70668;48.81286795;9.14184224;2023-11-19T07:32:26;2.37;;;1.23;;
215;SDS011;70668;48.81286795;9.14184224;2023-11-19T07:34:55;3.53;;;1.30;;
215;SDS011;70668;48.81286795;9.14184224;2023-11-19T07:37:23;3.07;;;1.20;;
215;SDS011;70668;48.81286795;9.14184224;2023-11-19T07:39:52;2.20;;;1.10;;
215;SDS011;70668;48.81286795;9.14184224;2023-11-19T07:42:20;3.73;;;1.30;;
215;SDS011;70668;48.81286795;9.14184224;2023-11-19T07:44:49;2.10;;;1.20;;
215;SDS011;70668;48.81286795;9.14184224;2023-11-19T07:47:22;2.30;;;1.30;;
215;SDS011;70668;48.81286795;9.14184224;2023-11-19T07:49:51;2.10;;;1.20;;
215;SDS011;70668;48.81286795;9.14184224;2023-11-19T07:52:19;4.80;;;1.40;;
215;SDS011;70668;48.81286795;9.14184224;2023-11-19T07:54:48;4.53;;;1.37;;
215;SDS011;70668;48.81286795;9.14184224;2023-11-19T07:57:16;2.30;;;1.30;;
215;SDS011;70668;48.81286795;9.14184224;2023-11-19T07:59:45;3.33;;;1.20;;
215;SDS011;70668;48.81286795;9.14184224;2023-11-19T08:02:14;3.23;;;1.20;;
215;SDS011;70668;48.81286795;9.14184224;2023-11-19T08:04:46;3.33;;;1.27;;
215;SDS011;70668;48.81286795;9.14184224;2023-11-19T08:07:17;2.80;;;1.20;;
215;SDS011;70668;48.81286795;9.14184224;2023-11-19T08:09:46;5.30;;;1.33;;
215;SDS011;70668;48.81286795;9.14184224;2023-11-19T08:12:14;2.00;;;1.20;;
215;SDS011;70668;48.81286795;9.14184224;2023-11-19T08:14:43;3.27;;;1.30;;
215;SDS011;70668;48.81286795;9.14184224;2023-11-19T08:17:12;3.77;;;1.20;;
215;SDS011;70668;48.81286795;9.14184224;2023-11-19T08:19:41;3.80;;;1.30;;
215;SDS011;70668;48.81286795;9.14184224;2023-11-19T08:22:12;2.60;;;1.10;;
215;SDS011;70668;48.81286795;9.14184224;2023-11-19T08:24:42;2.20;;;1.20;;
215;SDS011;70668;48.81286795;9.14184224;2023-11-19T08:27:10;4.13;;;1.50;;
215;SDS011;70668;48.81286795;9.14184224;2023-11-19T08:29:39;5.03;;;1.30;;
215;SDS011;70668;48.81286795;9.14184224;2023-11-19T08:32:07;2.47;;;1.10;;
215;SDS011;70668;48.81286795;9.14184224;2023-11-19T08:34:36;2.37;;;1.30;;
215;SDS011;70668;48.81286795;9.14184224;2023-11-19T08:37:05;2.70;;;1.27;;
215;SDS011;70668;48.81286795;9.14184224;2023-11-19T08:39:36;4.73;;;2.30;;
215;SDS011;70668;48.81286795;9.14184224;2023-11-19T08:42:05;5.60;;;1.40;;
215;SDS011;70668;48.81286795;9.14184224;2023-11-19T08:44:34;2.50;;;1.30;;
215;SDS011;70668;48.81286795;9.14184224;2023-11-19T08:47:03;3.70;;;1.30;;
215;SDS011;70668;48.81286795;9.14184224;2023-11-19T08:49:32;2.83;;;1.23;;
215;SDS011;70668;48.81286795;9.14184224;2023-11-19T08:52:00;2.20;;;1.30;;
215;SDS011;70668;48.81286795;9.14184224;2023-11-19T08:54:29;2.93;;;1.20;;
215;SDS011;70668;48.81286795;9.14184224;2023-11-19T08:57:01;3.00;;;1.30;;
215;SDS011;70668;48.81286795;9.14184224;2023-11-19T08:59:29;2.60;;;1.30;;
215;SDS011;70668;48.81286795;9.14184224;2023-11-19T09:01:58;2.10;;;1.30;;
215;SDS011;70668;48.81286795;9.14184224;2023-11-19T09:04:27;2.40;;;1.30;;
215;SDS011;70668;48.81286795;9.14184224;2023-11-19T09:06:57;2.93;;;1.40;;
215;SDS011;70668;48.81286795;9.14184224;2023-11-19T09:09:25;4.33;;;1.40;;
215;SDS011;70668;48.81286795;9.14184224;2023-11-19T09:11:54;5.20;;;1.70;;
215;SDS011;70668;48.81286795;9.14184224;2023-11-19T09:14:25;3.07;;;1.30;;
215;SDS011;70668;48.81286795;9.14184224;2023-11-19T09:16:53;3.13;;;1.70;;
215;SDS011;70668;48.81286795;9.14184224;2023-11-19T09:19:22;3.23;;;1.20;;
215;SDS011;70668;48.81286795;9.14184224;2023-11-19T09:21:51;3.33;;;1.40;;
215;SDS011;70668;48.81286795;9.14184224;2023-11-19T09:24:19;4.20;;;1.40;;
215;SDS011;70668;48.81286795;9.14184224;2023-11-19T09:26:48;3.77;;;1.30;;
215;SDS011;70668;48.81286795;9.14184224;2023-11-19T09:29:17;2.80;;;1.50;;
215;SDS011;70668;48.81286795;9.14184224;2023-11-19T09:31:49;3.03;;;1.40;;
215;SDS011;70668;48.81286795;9.14184224;2023-11-19T09:34:18;3.63;;;1.50;;
215;SDS011;70668;48.81286795;9.14184224;2023-11-19T09:36:46;4.00;;;1.60;;
215;SDS011;70668;48.81286795;9.14184224;2023-11-19T09:39:15;5.87;;;1.80;;
215;SDS011;70668;48.81286795;9.14184224;2023-11-19T09:41:44;7.70;;;1.63;;
215;SDS011;70668;48.81286795;9.14184224;2023-11-19T09:44:13;3.80;;;2.20;;
215;SDS011;70668;48.81286795;9.14184224;2023-11-19T09:46:43;6.03;;;2.17;;
215;SDS011;70668;48.81286795;9.14184224;2023-11-19T09:49:16;6.60;;;2.03;;
215;SDS011;70668;48.81286795;9.14184224;2023-11-19T09:51:49;4.03;;;2.00;;
215;SDS011;70668;48.81286795;9.14184224;2023-11-19T09:54:18;3.40;;;1.73;;
215;SDS011;70668;48.81286795;9.14184224;2023-11-19T09:56:46;3.63;;;1.60;;
215;SDS011;70668;48.81286795;9.14184224;2023-11-19T09:59:16;3.83;;;1.50;;
215;SDS011;70668;48.81286795;9.14184224;2023-11-19T10:01:45;3.33;;;1.50;;
215;SDS011;70668;48.81286795;9.14184224;2023-11-19T10:04:17;2.43;;;1.40;;
215;SDS011;70668;48.81286795;9.14184224;2023-11-19T10:06:47;3.03;;;1.70;;
215;SDS011;70668;48.81286795;9.14184224;2023-11-19T10:09:17;3.20;;;1.40;;
215;SDS011;70668;48.81286795;9.14184224;2023-11-19T10:11:45;5.80;;;1.60;;
215;SDS011;70668;48.81286795;9.14184224;2023-11-19T10:14:14;3.20;;;1.50;;
215;SDS011;70668;48.81286795;9.14184224;2023-11-19T10:16:44;3.00;;;1.70;;
215;SDS011;70668;48.81286795;9.14184224;2023-11-19T10:19:20;7.63;;;1.90;;
215;SDS011;70668;48.81286795;9.14184224;2023-11-19T10:21:49;5.70;;;1.60;;
215;SDS011;70668;48.81286795;9.14184224;2023-11-19T10:24:21;3.60;;;1.70;;
215;SDS011;70668;48.81286795;9.14184224;2023-11-19T10:26:59;3.47;;;1.70;;
215;SDS011;70668;48.81286795;9.14184224;2023-11-19T10:29:29;5.83;;;1.83;;
215;SDS011;70668;48.81286795;9.14184224;2023-11-19T10:31:57;3.43;;;1.80;;
215;SDS011;70668;48.81286795;9.14184224;2023-11-19T10:34:29;4.00;;;1.80;;
215;SDS011;70668;48.81286795;9.14184224;2023-11-19T10:36:58;3.57;;;1.60;;
215;SDS011;70668;48.81286795;9.14184224;2023-11-19T10:39:31;3.13;;;1.60;;
215;SDS011;70668;48.81286795;9.14184224;2023-11-19T10:42:21;4.47;;;1.70;;
215;SDS011;70668;48.81286795;9.14184224;2023-11-19T10:44:50;4.87;;;1.50;;
215;SDS011;70668;48.81286795;9.14184224;2023-11-19T10:47:18;3.60;;;1.50;;
215;SDS011;70668;48.81286795;9.14184224;2023-11-19T10:49:50;3.17;;;1.60;;
215;SDS011;70668;48.81286795;9.14184224;2023-11-19T10:52:19;3.70;;;1.40;;
215;SDS011;70668;48.81286795;9.14184224;2023-11-19T10:54:49;4.20;;;1.43;;
215;SDS011;70668;48.81286795;9.14184224;2023-11-19T10:57:19;3.17;;;1.50;;
215;SDS011;70668;48.81286795;9.14184224;2023-11-19T10:59:49;5.33;;;2.10;;
215;SDS011;70668;48.81286795;9.14184224;2023-11-19T11:02:24;2.80;;;1.50;;
215;SDS011;70668;48.81286795;9.14184224;2023-11-19T11:04:58;3.50;;;1.50;;
215;SDS011;70668;48.81286795;9.14184224;2023-11-19T11:07:28;4.53;;;1.60;;
215;SDS011;70668;48.81286795;9.14184224;2023-11-19T11:09:59;3.87;;;1.70;;
215;SDS011;70668;48.81286795;9.14184224;2023-11-19T11:12:31;3.60;;;1.70;;
215;SDS011;70668;48.81286795;9.14184224;2023-11-19T11:15:05;5.63;;;1.80;;
215;SDS011;70668;48.81286795;9.14184224;2023-11-19T11:17:35;4.60;;;1.93;;
215;SDS011;70668;48.81286795;9.14184224;2023-11-19T11:20:10;4.97;;;2.00;;
215;SDS011;70668;48.81286795;9.14184224;2023-11-19T11:22:41;3.47;;;1.93;;
215;SDS011;70668;48.81286795;9.14184224;2023-11-19T11:25:29;4.87;;;1.70;;
215;SDS011;70668;48.81286795;9.14184224;2023-11-19T11:28:13;4.63;;;1.97;;
215;SDS011;70668;48.81286795;9.14184224;2023-11-19T11:30:54;3.13;;;1.60;;
215;SDS011;70668;48.81286795;9.14184224;2023-11-19T11:33:34;5.63;;;1.93;;
215;SDS011;70668;48.81286795;9.14184224;2023-11-19T11:36:19;5.00;;;1.80;;
215;SDS011;70668;48.81286795;9.14184224;2023-11-19T11:38:49;4.23;;;1.73;;
215;SDS011;70668;48.81286795;9.14184224;2023-11-19T11:41:18;2.80;;;1.60;;
215;SDS011;70668;48.81286795;9.14184224;2023-11-19T11:43:48;4.20;;;1.60;;
215;SDS011;70668;48.81286795;9.14184224;2023-11-19T11:49:16;5.00;;;1.80;;
215;SDS011;70668;48.81286795;9.14184224;2023-11-19T11:52:03;4.03;;;1.80;;
215;SDS011;70668;48.81286795;9.14184224;2023-11-19T11:54:33;4.43;;;1.70;;
215;SDS011;70668;48.81286795;9.14184224;2023-11-19T11:57:03;3.40;;;1.60;;
215;SDS011;70668;48.81286795;9.14184224;2023-11-19T11:59:48;5.70;;;1.70;;
215;SDS011;70668;48.81286795;9.14184224;2023-11-19T12:02:18;4.20;;;1.70;;
215;SDS011;70668;48.81286795;9.14184224;2023-11-19T12:04:48;4.20;;;1.77;;
215;SDS011;70668;48.81286795;9.14184224;2023-11-19T12:07:20;5.40;;;2.20;;
215;SDS011;70668;48.81286795;9.14184224;2023-11-19T12:09:51;4.40;;;1.80;;
215;SDS011;70668;48.81286795;9.14184224;2023-11-19T12:12:22;6.70;;;1.73;;
215;SDS011;70668;48.81286795;9.14184224;2023-11-19T12:15:00;5.17;;;1.70;;
215;SDS011;70668;48.81286795;9.14184224;2023-11-19T12:17:41;5.17;;;1.90;;
215;SDS011;70668;48.81286795;9.14184224;2023-11-19T12:20:19;3.30;;;1.60;;
215;SDS011;70668;48.81286795;9.14184224;2023-11-19T12:22:52;3.47;;;1.80;;
215;SDS011;70668;48.81286795;9.14184224;2023-11-19T12:25:21;4.93;;;1.80;;
215;SDS011;70668;48.81286795;9.14184224;2023-11-19T12:27:50;6.17;;;2.20;;
215;SDS011;70668;48.81286795;9.14184224;2023-11-19T12:30:21;4.50;;;1.97;;
215;SDS011;70668;48.81286795;9.14184224;2023-11-19T12:32:51;3.53;;;1.50;;
215;SDS011;70668;48.81286795;9.14184224;2023-11-19T12:35:21;3.93;;;1.40;;
215;SDS011;70668;48.81286795;9.14184224;2023-11-19T12:37:52;3.67;;;1.60;;
215;SDS011;70668;48.81286795;9.14184224;2023-11-19T12:40:21;4.73;;;2.03;;
215;SDS011;70668;48.81286795;9.14184224;2023-11-19T12:42:51;3.33;;;1.60;;
215;SDS011;70668;48.81286795;9.14184224;2023-11-19T12:45:20;4.50;;;1.70;;
215;SDS011;70668;48.81286795;9.14184224;2023-11-19T12:47:49;3.40;;;1.47;;
215;SDS011;70668;48.81286795;9.14184224;2023-11-19T12:53:21;4.40;;;1.50;;
215;SDS011;70668;48.81286795;9.14184224;2023-11-19T12:55:49;3.37;;;1.40;;
215;SDS011;70668;48.81286795;9.14184224;2023-11-19T12:58:28;4.83;;;1.80;;
215;SDS011;70668;48.81286795;9.14184224;2023-11-19T13:01:00;5.40;;;1.50;;
215;SDS011;70668;48.81286795;9.14184224;2023-11-19T13:03:30;4.50;;;1.57;;
215;SDS011;70668;48.81286795;9.14184224;2023-11-19T13:06:03;3.10;;;1.50;;
215;SDS011;70668;48.81286795;9.14184224;2023-11-19T13:08:39;3.37;;;1.50;;
215;SDS011;70668;48.81286795;9.14184224;2023-11-19T13:11:09;4.20;;;1.80;;
215;SDS011;70668;48.81286795;9.14184224;2023-11-19T13:13:54;4.00;;;1.70;;
215;SDS011;70668;48.81286795;9.14184224;2023-11-19T13:16:23;3.80;;;1.40;;
215;SDS011;70668;48.81286795;9.14184224;2023-11-19T13:18:52;5.93;;;1.73;;
215;SDS011;70668;48.81286795;9.14184224;2023-11-19T13:21:20;4.00;;;1.43;;
215;SDS011;70668;48.81286795;9.14184224;2023-11-19T13:23:51;5.50;;;1.77;;
215;SDS011;70668;48.81286795;9.14184224;2023-11-19T13:26:20;4.60;;;1.80;;
215;SDS011;70668;48.81286795;9.14184224;2023-11-19T13:28:49;3.97;;;1.70;;
215;SDS011;70668;48.81286795;9.14184224;2023-11-19T13:31:17;5.07;;;1.50;;
215;SDS011;70668;48.81286795;9.14184224;2023-11-19T13:33:46;3.33;;;1.50;;